sensor_id;sensor_type;location;lat;lon;timestamp;pressure;altitude;pressure_sealevel;temperature;humidity
11936;BME280;6027;48.576;9.180;2023-02-03T00:01:47;98147.41;;;4.40;100.00
11936;BME280;6027;48.576;9.180;2023-02-03T00:04:12;98142.75;;;4.44;100.00
11936;BME280;6027;48.576;9.180;2023-02-03T00:06:38;98142.28;;;4.39;100.00
11936;BME280;6027;48.576;9.180;2023-02-03T00:09:04;98150.13;;;4.39;100.00
11936;BME280;6027;48.576;9.180;2023-02-03T00:11:30;98137.03;;;4.39;100.00
11936;BME280;6027;48.576;9.180;2023-02-03T00:13:56;98129.88;;;4.41;100.00
11936;BME280;6027;48.576;9.180;2023-02-03T00:16:22;98139.75;;;4.37;100.00
11936;BME280;6027;48.576;9.180;2023-02-03T00:18:47;98125.59;;;4.40;100.00
11936;BME280;6027;48.576;9.180;2023-02-03T00:21:12;98124.03;;;4.37;100.00
11936;BME280;6027;48.576;9.180;2023-02-03T00:23:41;98121.63;;;4.34;100.00
11936;BME280;6027;48.576;9.180;2023-02-03T00:26:12;98130.16;;;4.25;100.00
11936;BME280;6027;48.576;9.180;2023-02-03T00:28:37;98134.06;;;4.20;100.00
11936;BME280;6027;48.576;9.180;2023-02-03T00:31:03;98127.78;;;4.22;100.00
11936;BME280;6027;48.576;9.180;2023-02-03T00:33:29;98133.97;;;4.21;100.00
11936;BME280;6027;48.576;9.180;2023-02-03T00:35:54;98128.84;;;4.20;100.00
11936;BME280;6027;48.576;9.180;2023-02-03T00:38:20;98128.63;;;4.23;100.00
11936;BME280;6027;48.576;9.180;2023-02-03T00:40:52;98124.53;;;4.19;100.00
11936;BME280;6027;48.576;9.180;2023-02-03T00:43:18;98135.13;;;4.17;100.00
11936;BME280;6027;48.576;9.180;2023-02-03T00:45:44;98133.78;;;4.11;100.00
11936;BME280;6027;48.576;9.180;2023-02-03T00:48:09;98132.63;;;4.15;100.00
11936;BME280;6027;48.576;9.180;2023-02-03T00:50:35;98131.56;;;4.18;100.00
11936;BME280;6027;48.576;9.180;2023-02-03T00:53:00;98123.06;;;4.14;100.00
11936;BME280;6027;48.576;9.180;2023-02-03T00:55:26;98130.00;;;4.15;100.00
11936;BME280;6027;48.576;9.180;2023-02-03T00:57:51;98121.41;;;4.13;100.00
11936;BME280;6027;48.576;9.180;2023-02-03T01:00:18;98129.25;;;4.13;100.00
11936;BME280;6027;48.576;9.180;2023-02-03T01:02:43;98128.00;;;4.19;100.00
11936;BME280;6027;48.576;9.180;2023-02-03T01:05:09;98136.69;;;4.20;100.00
11936;BME280;6027;48.576;9.180;2023-02-03T01:07:35;98138.25;;;4.22;100.00
11936;BME280;6027;48.576;9.180;2023-02-03T01:10:00;98141.94;;;4.20;100.00
11936;BME280;6027;48.576;9.180;2023-02-03T01:12:28;98142.03;;;4.18;100.00
11936;BME280;6027;48.576;9.180;2023-02-03T01:14:54;98148.00;;;4.20;100.00
11936;BME280;6027;48.576;9.180;2023-02-03T01:17:19;98146.97;;;4.23;100.00
11936;BME280;6027;48.576;9.180;2023-02-03T01:19:45;98143.50;;;4.22;100.00
11936;BME280;6027;48.576;9.180;2023-02-03T01:22:10;98132.88;;;4.24;100.00
11936;BME280;6027;48.576;9.180;2023-02-03T01:24:35;98130.25;;;4.24;100.00
11936;BME280;6027;48.576;9.180;2023-02-03T01:27:01;98128.22;;;4.16;100.00
11936;BME280;6027;48.576;9.180;2023-02-03T01:29:26;98130.72;;;4.18;100.00
11936;BME280;6027;48.576;9.180;2023-02-03T01:31:52;98128.09;;;4.18;100.00
11936;BME280;6027;48.576;9.180;2023-02-03T01:34:17;98114.88;;;4.19;100.00
11936;BME280;6027;48.576;9.180;2023-02-03T01:36:43;98097.16;;;4.23;100.00
11936;BME280;6027;48.576;9.180;2023-02-03T01:39:09;98092.13;;;4.20;100.00
11936;BME280;6027;48.576;9.180;2023-02-03T01:41:37;98086.06;;;4.19;100.00
11936;BME280;6027;48.576;9.180;2023-02-03T01:47:24;98098.81;;;4.24;100.00
11936;BME280;6027;48.576;9.180;2023-02-03T01:52:21;98080.19;;;4.15;100.00
11936;BME280;6027;48.576;9.180;2023-02-03T01:54:47;98076.84;;;4.13;100.00
11936;BME280;6027;48.576;9.180;2023-02-03T01:57:44;98063.53;;;4.16;100.00
11936;BME280;6027;48.576;9.180;2023-02-03T02:00:12;98066.38;;;4.13;100.00
11936;BME280;6027;48.576;9.180;2023-02-03T02:02:39;98080.91;;;4.18;100.00
11936;BME280;6027;48.576;9.180;2023-02-03T02:05:06;98083.91;;;4.24;100.00
11936;BME280;6027;48.576;9.180;2023-02-03T02:07:36;98088.38;;;4.35;100.00
11936;BME280;6027;48.576;9.180;2023-02-03T02:10:04;98094.44;;;4.35;100.00
11936;BME280;6027;48.576;9.180;2023-02-03T02:12:30;98086.09;;;4.30;100.00
11936;BME280;6027;48.576;9.180;2023-02-03T02:14:55;98100.44;;;4.37;100.00
11936;BME280;6027;48.576;9.180;2023-02-03T02:17:39;98111.41;;;4.42;100.00
11936;BME280;6027;48.576;9.180;2023-02-03T02:23:28;98087.94;;;4.41;100.00
11936;BME280;6027;48.576;9.180;2023-02-03T02:31:46;98048.59;;;4.41;100.00
11936;BME280;6027;48.576;9.180;2023-02-03T02:42:38;98050.75;;;4.47;100.00
11936;BME280;6027;48.576;9.180;2023-02-03T02:45:15;98051.34;;;4.50;100.00
11936;BME280;6027;48.576;9.180;2023-02-03T02:47:43;98056.25;;;4.55;100.00
11936;BME280;6027;48.576;9.180;2023-02-03T02:50:16;98043.25;;;4.54;100.00
11936;BME280;6027;48.576;9.180;2023-02-03T02:52:45;98048.63;;;4.52;100.00
11936;BME280;6027;48.576;9.180;2023-02-03T02:55:16;98041.91;;;4.48;100.00
11936;BME280;6027;48.576;9.180;2023-02-03T02:57:49;98022.38;;;4.52;100.00
11936;BME280;6027;48.576;9.180;2023-02-03T03:00:16;98009.16;;;4.54;100.00
11936;BME280;6027;48.576;9.180;2023-02-03T03:02:42;98005.69;;;4.53;100.00
11936;BME280;6027;48.576;9.180;2023-02-03T03:05:09;98025.84;;;4.53;100.00
11936;BME280;6027;48.576;9.180;2023-02-03T03:07:52;98042.88;;;4.47;100.00
11936;BME280;6027;48.576;9.180;2023-02-03T03:10:21;98047.88;;;4.50;100.00
11936;BME280;6027;48.576;9.180;2023-02-03T03:12:53;98046.34;;;4.47;100.00
11936;BME280;6027;48.576;9.180;2023-02-03T03:15:24;98044.53;;;4.48;100.00
11936;BME280;6027;48.576;9.180;2023-02-03T03:18:00;98051.13;;;4.54;100.00
11936;BME280;6027;48.576;9.180;2023-02-03T03:20:29;98049.56;;;4.51;100.00
11936;BME280;6027;48.576;9.180;2023-02-03T03:23:06;98028.81;;;4.48;100.00
11936;BME280;6027;48.576;9.180;2023-02-03T03:25:42;98020.94;;;4.48;100.00
11936;BME280;6027;48.576;9.180;2023-02-03T03:28:15;98028.69;;;4.49;100.00
11936;BME280;6027;48.576;9.180;2023-02-03T03:30:41;98029.75;;;4.47;100.00
11936;BME280;6027;48.576;9.180;2023-02-03T03:33:08;98026.19;;;4.48;100.00
11936;BME280;6027;48.576;9.180;2023-02-03T03:35:49;98024.06;;;4.53;100.00
11936;BME280;6027;48.576;9.180;2023-02-03T03:38:35;98033.00;;;4.50;100.00
11936;BME280;6027;48.576;9.180;2023-02-03T03:41:08;98030.97;;;4.54;100.00
11936;BME280;6027;48.576;9.180;2023-02-03T03:43:39;98039.78;;;4.53;100.00
11936;BME280;6027;48.576;9.180;2023-02-03T03:46:20;98048.84;;;4.49;100.00
11936;BME280;6027;48.576;9.180;2023-02-03T03:48:52;98058.38;;;4.50;100.00
11936;BME280;6027;48.576;9.180;2023-02-03T03:51:30;98076.41;;;4.55;100.00
11936;BME280;6027;48.576;9.180;2023-02-03T03:54:03;98077.22;;;4.55;100.00
11936;BME280;6027;48.576;9.180;2023-02-03T03:56:35;98081.19;;;4.61;100.00
11936;BME280;6027;48.576;9.180;2023-02-03T03:59:06;98080.09;;;4.63;100.00
11936;BME280;6027;48.576;9.180;2023-02-03T04:01:33;98088.22;;;4.60;100.00
11936;BME280;6027;48.576;9.180;2023-02-03T04:04:02;98108.94;;;4.63;100.00
11936;BME280;6027;48.576;9.180;2023-02-03T04:06:30;98104.66;;;4.62;100.00
11936;BME280;6027;48.576;9.180;2023-02-03T04:08:55;98101.69;;;4.67;100.00
11936;BME280;6027;48.576;9.180;2023-02-03T04:11:21;98119.22;;;4.66;100.00
11936;BME280;6027;48.576;9.180;2023-02-03T04:14:05;98110.63;;;4.64;100.00
11936;BME280;6027;48.576;9.180;2023-02-03T04:16:30;98110.28;;;4.69;100.00
11936;BME280;6027;48.576;9.180;2023-02-03T04:18:56;98116.59;;;4.66;100.00
11936;BME280;6027;48.576;9.180;2023-02-03T04:21:21;98110.88;;;4.61;100.00
11936;BME280;6027;48.576;9.180;2023-02-03T04:23:47;98114.19;;;4.63;100.00
11936;BME280;6027;48.576;9.180;2023-02-03T04:26:12;98107.44;;;4.61;100.00
11936;BME280;6027;48.576;9.180;2023-02-03T04:28:38;98099.19;;;4.65;100.00
11936;BME280;6027;48.576;9.180;2023-02-03T04:31:03;98092.16;;;4.66;100.00
11936;BME280;6027;48.576;9.180;2023-02-03T04:33:28;98095.38;;;4.58;100.00
11936;BME280;6027;48.576;9.180;2023-02-03T04:35:54;98085.00;;;4.57;100.00
11936;BME280;6027;48.576;9.180;2023-02-03T04:38:19;98075.44;;;4.56;100.00
11936;BME280;6027;48.576;9.180;2023-02-03T04:40:45;98099.91;;;4.67;100.00
11936;BME280;6027;48.576;9.180;2023-02-03T04:43:10;98078.31;;;4.64;100.00
11936;BME280;6027;48.576;9.180;2023-02-03T04:45:36;98073.19;;;4.62;100.00
11936;BME280;6027;48.576;9.180;2023-02-03T04:48:02;98061.88;;;4.62;100.00
11936;BME280;6027;48.576;9.180;2023-02-03T04:50:31;98062.22;;;4.57;100.00
11936;BME280;6027;48.576;9.180;2023-02-03T04:52:56;98061.84;;;4.50;100.00
11936;BME280;6027;48.576;9.180;2023-02-03T04:55:28;98053.03;;;4.51;100.00
11936;BME280;6027;48.576;9.180;2023-02-03T04:57:57;98065.53;;;4.48;100.00
11936;BME280;6027;48.576;9.180;2023-02-03T05:00:23;98046.44;;;4.46;100.00
11936;BME280;6027;48.576;9.180;2023-02-03T05:02:49;98050.63;;;4.48;100.00
11936;BME280;6027;48.576;9.180;2023-02-03T05:05:14;98049.78;;;4.48;100.00
11936;BME280;6027;48.576;9.180;2023-02-03T05:07:40;98051.56;;;4.47;100.00
11936;BME280;6027;48.576;9.180;2023-02-03T05:10:06;98055.75;;;4.50;100.00
11936;BME280;6027;48.576;9.180;2023-02-03T05:12:31;98058.38;;;4.50;100.00
11936;BME280;6027;48.576;9.180;2023-02-03T05:14:57;98062.91;;;4.48;100.00
11936;BME280;6027;48.576;9.180;2023-02-03T05:17:23;98060.06;;;4.51;100.00
11936;BME280;6027;48.576;9.180;2023-02-03T05:19:48;98053.59;;;4.44;100.00
11936;BME280;6027;48.576;9.180;2023-02-03T05:22:14;98059.78;;;4.43;100.00
11936;BME280;6027;48.576;9.180;2023-02-03T05:24:39;98071.00;;;4.45;100.00
11936;BME280;6027;48.576;9.180;2023-02-03T05:27:05;98073.88;;;4.42;100.00
11936;BME280;6027;48.576;9.180;2023-02-03T05:29:30;98077.44;;;4.41;100.00
11936;BME280;6027;48.576;9.180;2023-02-03T05:31:55;98078.38;;;4.40;100.00
11936;BME280;6027;48.576;9.180;2023-02-03T05:34:21;98079.56;;;4.36;100.00
11936;BME280;6027;48.576;9.180;2023-02-03T05:36:46;98076.72;;;4.39;100.00
11936;BME280;6027;48.576;9.180;2023-02-03T05:41:49;98091.00;;;4.35;100.00
11936;BME280;6027;48.576;9.180;2023-02-03T05:44:22;98083.38;;;4.43;100.00
11936;BME280;6027;48.576;9.180;2023-02-03T05:46:49;98086.25;;;4.40;100.00
11936;BME280;6027;48.576;9.180;2023-02-03T05:49:15;98093.41;;;4.38;100.00
11936;BME280;6027;48.576;9.180;2023-02-03T05:51:40;98106.19;;;4.42;100.00
11936;BME280;6027;48.576;9.180;2023-02-03T05:54:06;98116.03;;;4.39;100.00
11936;BME280;6027;48.576;9.180;2023-02-03T05:56:32;98107.56;;;4.35;100.00
11936;BME280;6027;48.576;9.180;2023-02-03T05:58:58;98097.31;;;4.32;100.00
11936;BME280;6027;48.576;9.180;2023-02-03T06:01:23;98085.88;;;4.33;100.00
11936;BME280;6027;48.576;9.180;2023-02-03T06:03:50;98080.84;;;4.30;100.00
11936;BME280;6027;48.576;9.180;2023-02-03T06:06:16;98084.06;;;4.34;100.00
11936;BME280;6027;48.576;9.180;2023-02-03T06:08:42;98079.78;;;4.33;100.00
11936;BME280;6027;48.576;9.180;2023-02-03T06:11:08;98089.31;;;4.34;100.00
11936;BME280;6027;48.576;9.180;2023-02-03T06:13:34;98083.47;;;4.30;100.00
11936;BME280;6027;48.576;9.180;2023-02-03T06:15:59;98091.38;;;4.41;100.00
11936;BME280;6027;48.576;9.180;2023-02-03T06:18:25;98100.44;;;4.37;100.00
11936;BME280;6027;48.576;9.180;2023-02-03T06:20:50;98102.22;;;4.37;100.00
11936;BME280;6027;48.576;9.180;2023-02-03T06:23:16;98110.28;;;4.34;100.00
11936;BME280;6027;48.576;9.180;2023-02-03T06:25:44;98102.88;;;4.28;100.00
11936;BME280;6027;48.576;9.180;2023-02-03T06:28:09;98079.91;;;4.31;100.00
11936;BME280;6027;48.576;9.180;2023-02-03T06:30:35;98078.94;;;4.32;100.00
11936;BME280;6027;48.576;9.180;2023-02-03T06:33:00;98079.28;;;4.28;100.00
11936;BME280;6027;48.576;9.180;2023-02-03T06:35:26;98072.97;;;4.30;100.00
11936;BME280;6027;48.576;9.180;2023-02-03T06:37:51;98072.88;;;4.32;100.00
11936;BME280;6027;48.576;9.180;2023-02-03T06:40:17;98063.31;;;4.31;100.00
11936;BME280;6027;48.576;9.180;2023-02-03T06:42:46;98070.97;;;4.34;100.00
11936;BME280;6027;48.576;9.180;2023-02-03T06:45:12;98074.53;;;4.33;100.00
11936;BME280;6027;48.576;9.180;2023-02-03T06:47:41;98069.28;;;4.33;100.00
11936;BME280;6027;48.576;9.180;2023-02-03T06:50:09;98077.28;;;4.31;100.00
11936;BME280;6027;48.576;9.180;2023-02-03T06:52:35;98089.94;;;4.37;100.00
11936;BME280;6027;48.576;9.180;2023-02-03T06:55:03;98086.47;;;4.37;100.00
11936;BME280;6027;48.576;9.180;2023-02-03T06:57:28;98074.44;;;4.34;100.00
11936;BME280;6027;48.576;9.180;2023-02-03T06:59:54;98063.31;;;4.31;100.00
11936;BME280;6027;48.576;9.180;2023-02-03T07:02:19;98054.00;;;4.27;100.00
11936;BME280;6027;48.576;9.180;2023-02-03T07:04:46;98052.34;;;4.26;100.00
11936;BME280;6027;48.576;9.180;2023-02-03T07:07:19;98028.63;;;4.16;100.00
11936;BME280;6027;48.576;9.180;2023-02-03T07:09:59;98047.72;;;4.29;100.00
11936;BME280;6027;48.576;9.180;2023-02-03T07:12:25;98043.31;;;4.30;100.00
11936;BME280;6027;48.576;9.180;2023-02-03T07:14:50;98023.50;;;4.26;100.00
11936;BME280;6027;48.576;9.180;2023-02-03T07:17:16;98031.97;;;4.29;100.00
11936;BME280;6027;48.576;9.180;2023-02-03T07:19:47;98041.59;;;4.18;100.00
11936;BME280;6027;48.576;9.180;2023-02-03T07:22:13;98044.38;;;4.27;100.00
11936;BME280;6027;48.576;9.180;2023-02-03T07:24:39;98054.00;;;4.27;100.00
11936;BME280;6027;48.576;9.180;2023-02-03T07:27:06;98045.41;;;4.25;100.00
11936;BME280;6027;48.576;9.180;2023-02-03T07:29:31;98053.78;;;4.30;100.00
11936;BME280;6027;48.576;9.180;2023-02-03T07:31:57;98057.34;;;4.29;100.00
11936;BME280;6027;48.576;9.180;2023-02-03T07:34:22;98058.31;;;4.28;100.00
11936;BME280;6027;48.576;9.180;2023-02-03T07:36:49;98029.47;;;4.28;100.00
11936;BME280;6027;48.576;9.180;2023-02-03T07:39:14;98029.75;;;4.36;100.00
11936;BME280;6027;48.576;9.180;2023-02-03T07:41:40;98024.13;;;4.29;100.00
11936;BME280;6027;48.576;9.180;2023-02-03T07:44:06;98029.97;;;4.33;100.00
11936;BME280;6027;48.576;9.180;2023-02-03T07:49:12;98034.75;;;4.39;100.00
11936;BME280;6027;48.576;9.180;2023-02-03T07:51:38;98050.97;;;4.44;100.00
11936;BME280;6027;48.576;9.180;2023-02-03T07:54:04;98048.13;;;4.47;100.00
11936;BME280;6027;48.576;9.180;2023-02-03T07:56:30;98065.53;;;4.48;100.00
11936;BME280;6027;48.576;9.180;2023-02-03T07:58:59;98073.63;;;4.45;100.00
11936;BME280;6027;48.576;9.180;2023-02-03T08:01:25;98075.06;;;4.49;100.00
11936;BME280;6027;48.576;9.180;2023-02-03T08:03:51;98098.78;;;4.47;100.00
11936;BME280;6027;48.576;9.180;2023-02-03T08:06:17;98089.13;;;4.48;100.00
11936;BME280;6027;48.576;9.180;2023-02-03T08:08:42;98090.06;;;4.47;100.00
11936;BME280;6027;48.576;9.180;2023-02-03T08:11:09;98097.72;;;4.50;100.00
11936;BME280;6027;48.576;9.180;2023-02-03T08:13:35;98095.81;;;4.52;100.00
11936;BME280;6027;48.576;9.180;2023-02-03T08:16:00;98102.13;;;4.49;100.00
11936;BME280;6027;48.576;9.180;2023-02-03T08:18:26;98127.28;;;4.52;100.00
11936;BME280;6027;48.576;9.180;2023-02-03T08:20:51;98123.50;;;4.56;100.00
11936;BME280;6027;48.576;9.180;2023-02-03T08:23:17;98111.22;;;4.57;100.00
11936;BME280;6027;48.576;9.180;2023-02-03T08:25:42;98111.22;;;4.57;100.00
11936;BME280;6027;48.576;9.180;2023-02-03T08:28:08;98114.09;;;4.65;100.00
11936;BME280;6027;48.576;9.180;2023-02-03T08:30:33;98110.63;;;4.64;100.00
11936;BME280;6027;48.576;9.180;2023-02-03T08:32:59;98109.78;;;4.64;100.00
11936;BME280;6027;48.576;9.180;2023-02-03T08:35:24;98118.59;;;4.63;100.00
11936;BME280;6027;48.576;9.180;2023-02-03T08:37:50;98120.41;;;4.62;100.00
11936;BME280;6027;48.576;9.180;2023-02-03T08:40:16;98130.88;;;4.62;100.00
11936;BME280;6027;48.576;9.180;2023-02-03T08:42:41;98133.50;;;4.62;100.00
11936;BME280;6027;48.576;9.180;2023-02-03T08:45:07;98128.16;;;4.64;100.00
11936;BME280;6027;48.576;9.180;2023-02-03T08:47:33;98126.84;;;4.58;100.00
11936;BME280;6027;48.576;9.180;2023-02-03T08:50:01;98121.59;;;4.58;100.00
11936;BME280;6027;48.576;9.180;2023-02-03T08:52:27;98118.88;;;4.60;100.00
11936;BME280;6027;48.576;9.180;2023-02-03T08:54:54;98115.03;;;4.64;100.00
11936;BME280;6027;48.576;9.180;2023-02-03T08:57:19;98132.81;;;4.60;100.00
11936;BME280;6027;48.576;9.180;2023-02-03T08:59:45;98137.81;;;4.63;100.00
11936;BME280;6027;48.576;9.180;2023-02-03T09:02:14;98130.66;;;4.65;100.00
11936;BME280;6027;48.576;9.180;2023-02-03T09:04:42;98139.03;;;4.70;100.00
11936;BME280;6027;48.576;9.180;2023-02-03T09:07:08;98123.91;;;4.74;100.00
11936;BME280;6027;48.576;9.180;2023-02-03T09:09:33;98123.06;;;4.73;100.00
11936;BME280;6027;48.576;9.180;2023-02-03T09:11:59;98131.44;;;4.78;100.00
11936;BME280;6027;48.576;9.180;2023-02-03T09:14:30;98139.53;;;4.75;100.00
11936;BME280;6027;48.576;9.180;2023-02-03T09:17:00;98135.75;;;4.79;100.00
11936;BME280;6027;48.576;9.180;2023-02-03T09:19:26;98135.25;;;4.85;100.00
11936;BME280;6027;48.576;9.180;2023-02-03T09:24:22;98124.41;;;4.79;100.00
11936;BME280;6027;48.576;9.180;2023-02-03T09:26:49;98117.47;;;4.78;100.00
11936;BME280;6027;48.576;9.180;2023-02-03T09:29:14;98104.81;;;4.72;100.00
11936;BME280;6027;48.576;9.180;2023-02-03T09:31:40;98114.97;;;4.76;100.00
11936;BME280;6027;48.576;9.180;2023-02-03T09:34:07;98113.41;;;4.85;100.00
11936;BME280;6027;48.576;9.180;2023-02-03T09:36:33;98114.25;;;4.85;100.00
11936;BME280;6027;48.576;9.180;2023-02-03T09:38:58;98108.91;;;4.87;100.00
11936;BME280;6027;48.576;9.180;2023-02-03T09:47:09;98123.84;;;4.98;100.00
11936;BME280;6027;48.576;9.180;2023-02-03T09:49:40;98111.56;;;4.98;100.00
11936;BME280;6027;48.576;9.180;2023-02-03T09:54:57;98114.91;;;5.11;100.00
11936;BME280;6027;48.576;9.180;2023-02-03T09:57:27;98120.16;;;5.11;100.00
11936;BME280;6027;48.576;9.180;2023-02-03T09:59:57;98117.41;;;5.13;100.00
11936;BME280;6027;48.576;9.180;2023-02-03T10:05:21;98123.84;;;5.20;100.00
11936;BME280;6027;48.576;9.180;2023-02-03T10:08:33;98117.91;;;5.18;100.00
11936;BME280;6027;48.576;9.180;2023-02-03T10:19:34;98098.69;;;5.29;100.00
11936;BME280;6027;48.576;9.180;2023-02-03T10:22:02;98079.34;;;5.30;100.00
11936;BME280;6027;48.576;9.180;2023-02-03T10:27:23;98086.75;;;5.25;100.00
11936;BME280;6027;48.576;9.180;2023-02-03T10:30:02;98080.31;;;5.29;100.00
11936;BME280;6027;48.576;9.180;2023-02-03T10:32:28;98099.53;;;5.29;100.00
11936;BME280;6027;48.576;9.180;2023-02-03T10:34:55;98101.69;;;5.35;100.00
11936;BME280;6027;48.576;9.180;2023-02-03T10:37:28;98104.88;;;5.39;100.00
11936;BME280;6027;48.576;9.180;2023-02-03T10:39:56;98114.06;;;5.44;100.00
11936;BME280;6027;48.576;9.180;2023-02-03T10:42:24;98092.47;;;5.30;100.00
11936;BME280;6027;48.576;9.180;2023-02-03T10:44:55;98114.31;;;5.41;100.00
11936;BME280;6027;48.576;9.180;2023-02-03T10:47:30;98114.19;;;5.43;100.00
11936;BME280;6027;48.576;9.180;2023-02-03T10:50:06;98104.53;;;5.32;100.00
11936;BME280;6027;48.576;9.180;2023-02-03T10:52:34;98086.53;;;5.16;100.00
11936;BME280;6027;48.576;9.180;2023-02-03T10:55:27;98109.91;;;5.31;100.00
11936;BME280;6027;48.576;9.180;2023-02-03T10:57:54;98079.69;;;5.25;100.00
11936;BME280;6027;48.576;9.180;2023-02-03T11:00:30;98094.63;;;5.36;100.00
11936;BME280;6027;48.576;9.180;2023-02-03T11:03:07;98078.03;;;5.35;100.00
11936;BME280;6027;48.576;9.180;2023-02-03T11:05:39;98074.59;;;5.35;100.00
11936;BME280;6027;48.576;9.180;2023-02-03T11:08:13;98056.91;;;5.37;100.00
11936;BME280;6027;48.576;9.180;2023-02-03T11:10:39;98049.88;;;5.37;100.00
11936;BME280;6027;48.576;9.180;2023-02-03T11:13:24;98046.41;;;5.37;100.00
11936;BME280;6027;48.576;9.180;2023-02-03T11:18:38;98028.47;;;5.42;100.00
11936;BME280;6027;48.576;9.180;2023-02-03T11:24:17;98040.25;;;5.59;100.00
11936;BME280;6027;48.576;9.180;2023-02-03T11:26:47;98037.19;;;5.53;100.00
11936;BME280;6027;48.576;9.180;2023-02-03T11:29:21;98040.06;;;5.50;100.00
11936;BME280;6027;48.576;9.180;2023-02-03T11:31:51;98031.47;;;5.48;100.00
11936;BME280;6027;48.576;9.180;2023-02-03T11:34:43;98032.91;;;5.52;100.00
11936;BME280;6027;48.576;9.180;2023-02-03T11:39:55;98051.75;;;5.58;100.00
11936;BME280;6027;48.576;9.180;2023-02-03T11:42:23;98043.88;;;5.58;100.00
11936;BME280;6027;48.576;9.180;2023-02-03T11:44:49;98029.75;;;5.59;100.00
11936;BME280;6027;48.576;9.180;2023-02-03T11:47:16;98027.47;;;5.65;100.00
11936;BME280;6027;48.576;9.180;2023-02-03T11:49:57;98036.31;;;5.64;100.00
11936;BME280;6027;48.576;9.180;2023-02-03T11:53:06;98038.00;;;5.65;100.00
11936;BME280;6027;48.576;9.180;2023-02-03T11:58:39;98044.91;;;5.66;100.00
11936;BME280;6027;48.576;9.180;2023-02-03T12:09:24;97997.25;;;5.71;100.00
11936;BME280;6027;48.576;9.180;2023-02-03T12:28:38;98012.13;;;5.49;100.00
11936;BME280;6027;48.576;9.180;2023-02-03T12:31:14;97999.59;;;5.53;100.00
11936;BME280;6027;48.576;9.180;2023-02-03T12:33:43;98013.03;;;5.60;100.00
11936;BME280;6027;48.576;9.180;2023-02-03T12:36:19;98003.25;;;5.62;100.00
11936;BME280;6027;48.576;9.180;2023-02-03T12:41:20;97995.97;;;5.65;100.00
11936;BME280;6027;48.576;9.180;2023-02-03T12:43:50;97992.00;;;5.71;100.00
11936;BME280;6027;48.576;9.180;2023-02-03T12:49:43;97968.19;;;5.83;100.00
11936;BME280;6027;48.576;9.180;2023-02-03T12:57:58;97965.91;;;5.90;100.00
11936;BME280;6027;48.576;9.180;2023-02-03T13:03:27;97972.84;;;5.91;100.00
11936;BME280;6027;48.576;9.180;2023-02-03T13:06:23;97964.25;;;5.89;100.00
11936;BME280;6027;48.576;9.180;2023-02-03T13:11:53;97908.31;;;5.87;100.00
11936;BME280;6027;48.576;9.180;2023-02-03T13:14:47;97894.59;;;5.83;100.00
11936;BME280;6027;48.576;9.180;2023-02-03T13:17:20;97884.78;;;5.85;100.00
11936;BME280;6027;48.576;9.180;2023-02-03T13:19:49;97917.66;;;5.91;100.00
11936;BME280;6027;48.576;9.180;2023-02-03T13:22:18;97912.75;;;5.86;100.00
11936;BME280;6027;48.576;9.180;2023-02-03T13:24:55;97920.28;;;5.91;100.00
11936;BME280;6027;48.576;9.180;2023-02-03T13:41:36;97944.41;;;5.96;100.00
11936;BME280;6027;48.576;9.180;2023-02-03T13:44:04;97939.13;;;5.96;100.00
11936;BME280;6027;48.576;9.180;2023-02-03T13:46:34;97938.31;;;5.96;100.00
11936;BME280;6027;48.576;9.180;2023-02-03T13:49:02;97929.44;;;5.97;100.00
11936;BME280;6027;48.576;9.180;2023-02-03T13:51:32;97920.88;;;5.95;100.00
11936;BME280;6027;48.576;9.180;2023-02-03T13:54:37;97924.88;;;5.99;100.00
11936;BME280;6027;48.576;9.180;2023-02-03T13:57:42;97910.91;;;5.98;100.00
11936;BME280;6027;48.576;9.180;2023-02-03T14:05:51;97908.59;;;6.05;100.00
11936;BME280;6027;48.576;9.180;2023-02-03T14:16:38;97917.44;;;6.04;100.00
11936;BME280;6027;48.576;9.180;2023-02-03T14:19:07;97917.81;;;5.99;100.00
11936;BME280;6027;48.576;9.180;2023-02-03T14:21:50;97920.34;;;6.01;100.00
11936;BME280;6027;48.576;9.180;2023-02-03T14:24:17;97922.00;;;6.02;100.00
11936;BME280;6027;48.576;9.180;2023-02-03T14:26:46;97921.28;;;6.00;100.00
11936;BME280;6027;48.576;9.180;2023-02-03T14:29:25;97934.31;;;6.01;100.00
11936;BME280;6027;48.576;9.180;2023-02-03T14:31:54;97944.81;;;6.01;100.00
11936;BME280;6027;48.576;9.180;2023-02-03T14:37:10;97944.13;;;5.99;100.00
11936;BME280;6027;48.576;9.180;2023-02-03T14:54:25;97948.03;;;6.05;100.00
11936;BME280;6027;48.576;9.180;2023-02-03T14:59:57;97945.91;;;5.99;100.00
11936;BME280;6027;48.576;9.180;2023-02-03T15:02:27;97941.13;;;6.04;100.00
11936;BME280;6027;48.576;9.180;2023-02-03T15:07:47;97934.06;;;6.04;100.00
11936;BME280;6027;48.576;9.180;2023-02-03T15:10:21;97940.78;;;5.97;100.00
11936;BME280;6027;48.576;9.180;2023-02-03T15:12:55;97949.66;;;5.96;100.00
11936;BME280;6027;48.576;9.180;2023-02-03T15:15:24;97943.81;;;5.93;100.00
11936;BME280;6027;48.576;9.180;2023-02-03T15:17:53;97939.50;;;5.92;100.00
11936;BME280;6027;48.576;9.180;2023-02-03T15:20:37;97970.22;;;5.91;100.00
11936;BME280;6027;48.576;9.180;2023-02-03T15:23:26;97942.41;;;5.88;100.00
11936;BME280;6027;48.576;9.180;2023-02-03T15:25:54;97945.13;;;5.87;100.00
11936;BME280;6027;48.576;9.180;2023-02-03T15:28:21;97936.75;;;5.82;100.00
11936;BME280;6027;48.576;9.180;2023-02-03T15:30:55;97926.63;;;5.77;100.00
11936;BME280;6027;48.576;9.180;2023-02-03T15:33:22;97925.22;;;5.73;100.00
11936;BME280;6027;48.576;9.180;2023-02-03T15:35:53;97924.78;;;5.68;100.00
11936;BME280;6027;48.576;9.180;2023-02-03T15:38:29;97930.41;;;5.64;100.00
11936;BME280;6027;48.576;9.180;2023-02-03T15:40:56;97916.31;;;5.65;100.00
11936;BME280;6027;48.576;9.180;2023-02-03T15:46:21;97934.81;;;5.63;100.00
11936;BME280;6027;48.576;9.180;2023-02-03T15:48:55;97941.84;;;5.63;100.00
11936;BME280;6027;48.576;9.180;2023-02-03T15:51:24;97945.06;;;5.66;100.00
11936;BME280;6027;48.576;9.180;2023-02-03T15:54:02;97945.19;;;5.65;100.00
11936;BME280;6027;48.576;9.180;2023-02-03T15:59:03;97944.97;;;5.68;100.00
11936;BME280;6027;48.576;9.180;2023-02-03T16:01:29;97932.78;;;5.67;100.00
11936;BME280;6027;48.576;9.180;2023-02-03T16:03:56;97946.03;;;5.65;100.00
11936;BME280;6027;48.576;9.180;2023-02-03T16:06:33;97944.72;;;5.71;100.00